createdAt,value
2022-09-12T00:00:15.857Z,19.80
2022-09-12T00:02:42.880Z,19.80
2022-09-12T00:05:09.894Z,19.80
2022-09-12T00:07:36.971Z,19.80
2022-09-12T00:10:04.692Z,19.80
2022-09-12T00:12:31.667Z,19.80
2022-09-12T00:14:59.185Z,19.80
2022-09-12T00:17:26.369Z,19.70
2022-09-12T00:19:53.332Z,19.70
2022-09-12T00:22:20.747Z,19.70
2022-09-12T00:24:47.930Z,19.70
2022-09-12T00:27:14.838Z,19.60
2022-09-12T00:29:41.973Z,19.60
2022-09-12T00:32:08.944Z,19.60
2022-09-12T00:34:36.731Z,19.60
2022-09-12T00:37:04.177Z,19.50
2022-09-12T00:39:31.314Z,19.50
2022-09-12T00:41:58.415Z,19.40
2022-09-12T00:44:26.851Z,19.40
2022-09-12T00:46:57.334Z,19.40
2022-09-12T00:49:48.680Z,19.40
2022-09-12T00:52:21.955Z,19.30
2022-09-12T00:55:10.438Z,19.30
2022-09-12T00:58:09.728Z,19.30
2022-09-12T01:00:36.976Z,19.20
2022-09-12T01:03:15.787Z,19.20
2022-09-12T01:05:52.715Z,19.20
2022-09-12T01:08:20.540Z,19.20
2022-09-12T01:10:48.276Z,19.20
2022-09-12T01:13:16.375Z,19.10
2022-09-12T01:15:43.394Z,19.10
2022-09-12T01:18:30.970Z,19.10
2022-09-12T01:21:15.403Z,19.10
2022-09-12T01:24:07.324Z,19.00
2022-09-12T01:26:59.227Z,19.00
2022-09-12T01:29:51.099Z,18.90
2022-09-12T01:32:46.893Z,18.90
2022-09-12T01:35:42.807Z,18.90
2022-09-12T01:38:27.699Z,18.90
2022-09-12T01:41:16.054Z,18.80
2022-09-12T01:44:25.487Z,18.80
2022-09-12T01:47:01.573Z,18.80
2022-09-12T01:49:40.902Z,18.80
2022-09-12T01:52:23.319Z,18.80
2022-09-12T01:55:09.068Z,18.70
2022-09-12T01:58:25.300Z,18.70
2022-09-12T02:01:11.521Z,18.70
2022-09-12T02:03:49.236Z,18.70
2022-09-12T02:06:23.671Z,18.70
2022-09-12T02:08:58.791Z,18.70
2022-09-12T02:11:26.839Z,18.70
2022-09-12T02:14:01.001Z,18.80
2022-09-12T02:16:44.898Z,18.70
2022-09-12T02:19:21.812Z,18.70
2022-09-12T02:21:59.188Z,18.80
2022-09-12T02:24:33.291Z,18.80
2022-09-12T02:27:06.217Z,18.80
2022-09-12T02:29:33.505Z,18.80
2022-09-12T02:32:06.159Z,18.80
2022-09-12T02:34:49.713Z,18.80
2022-09-12T02:37:37.961Z,18.90
2022-09-12T02:40:07.225Z,18.80
2022-09-12T02:42:34.305Z,18.90
2022-09-12T02:45:03.488Z,18.90
2022-09-12T02:47:37.767Z,18.90
2022-09-12T02:50:05.984Z,18.90
2022-09-12T02:52:33.038Z,18.90
2022-09-12T02:55:00.312Z,18.90
2022-09-12T02:57:27.360Z,18.90
2022-09-12T02:59:58.970Z,18.80
2022-09-12T03:02:45.975Z,18.80
2022-09-12T03:05:12.919Z,18.80
2022-09-12T03:07:58.850Z,18.80
2022-09-12T03:10:37.631Z,18.80
2022-09-12T03:13:23.217Z,18.80
2022-09-12T03:16:09.062Z,18.80
2022-09-12T03:19:03.435Z,18.80
2022-09-12T03:22:00.509Z,18.80
2022-09-12T03:25:06.625Z,18.80
2022-09-12T03:27:41.986Z,18.80
2022-09-12T03:30:11.245Z,18.80
2022-09-12T03:32:52.681Z,18.80
2022-09-12T03:35:23.357Z,18.80
2022-09-12T03:37:53.228Z,18.80
2022-09-12T03:40:20.704Z,18.80
2022-09-12T03:42:47.860Z,18.80
2022-09-12T03:45:16.690Z,18.80
2022-09-12T03:47:43.890Z,18.80
2022-09-12T03:50:11.304Z,18.80
2022-09-12T03:52:39.219Z,18.90
2022-09-12T03:55:06.974Z,18.90
2022-09-12T03:57:34.085Z,18.90
2022-09-12T04:00:02.605Z,18.90
2022-09-12T04:02:39.697Z,18.90
2022-09-12T04:05:06.868Z,18.90
2022-09-12T04:07:33.844Z,18.90
2022-09-12T04:10:00.884Z,18.90
2022-09-12T04:12:29.273Z,18.90
2022-09-12T04:14:56.195Z,18.90
2022-09-12T04:17:23.288Z,18.90
2022-09-12T04:19:50.154Z,18.90
2022-09-12T04:22:17.181Z,18.90
2022-09-12T04:24:44.044Z,18.90
2022-09-12T04:27:11.021Z,18.90
2022-09-12T04:29:38.675Z,18.90
2022-09-12T04:32:06.266Z,18.90
2022-09-12T04:34:33.545Z,18.90
2022-09-12T04:37:00.450Z,18.90
2022-09-12T04:39:27.432Z,18.90
2022-09-12T04:41:54.430Z,18.90
2022-09-12T04:44:21.937Z,18.90
2022-09-12T04:46:49.900Z,18.90
2022-09-12T04:49:17.544Z,18.90
2022-09-12T04:51:44.571Z,19.00
2022-09-12T04:54:19.898Z,19.00
2022-09-12T04:56:49.148Z,19.00
2022-09-12T04:59:18.309Z,19.00
2022-09-12T05:01:45.712Z,19.00
2022-09-12T05:04:14.508Z,19.00
2022-09-12T05:06:43.565Z,19.00
2022-09-12T05:09:14.716Z,19.00
2022-09-12T05:14:32.636Z,19.00
2022-09-12T05:17:01.867Z,19.00
2022-09-12T05:19:30.916Z,19.00
2022-09-12T05:21:59.594Z,19.00
2022-09-12T05:24:27.124Z,19.00
2022-09-12T05:26:54.177Z,19.00
2022-09-12T05:29:22.029Z,19.00
2022-09-12T05:31:52.317Z,19.00
2022-09-12T05:34:20.310Z,19.00
2022-09-12T05:36:47.317Z,19.00
2022-09-12T05:39:14.491Z,19.00
2022-09-12T05:41:41.649Z,19.00
2022-09-12T05:44:12.139Z,19.00
2022-09-12T05:46:41.718Z,19.00
2022-09-12T05:49:11.943Z,19.00
2022-09-12T05:51:44.965Z,19.00
2022-09-12T05:54:15.196Z,19.00
2022-09-12T05:56:43.363Z,19.10
2022-09-12T05:59:19.677Z,19.00
2022-09-12T06:01:47.811Z,19.10
2022-09-12T06:04:16.213Z,19.10
2022-09-12T06:06:49.120Z,19.10
2022-09-12T06:09:17.545Z,19.10
2022-09-12T06:11:46.115Z,19.10
2022-09-12T06:14:15.901Z,19.10
2022-09-12T06:16:43.037Z,19.10
2022-09-12T06:19:21.827Z,19.10
2022-09-12T06:21:50.203Z,19.10
2022-09-12T06:24:19.046Z,19.10
2022-09-12T06:26:47.502Z,19.20
2022-09-12T06:29:14.634Z,19.20
2022-09-12T06:31:43.658Z,19.20
2022-09-12T06:34:14.217Z,19.10
2022-09-12T06:36:44.190Z,19.10
2022-09-12T06:39:14.303Z,19.10
2022-09-12T06:41:44.043Z,19.10
2022-09-12T06:44:18.098Z,19.10
2022-09-12T06:46:45.998Z,19.10
2022-09-12T06:49:13.769Z,19.10
2022-09-12T06:51:42.199Z,19.10
2022-09-12T06:54:12.522Z,19.10
2022-09-12T06:56:39.640Z,19.10
2022-09-12T06:59:06.909Z,19.20
2022-09-12T07:01:34.487Z,19.20
2022-09-12T07:04:04.023Z,19.30
2022-09-12T07:06:42.947Z,19.40
2022-09-12T07:09:13.206Z,19.60
2022-09-12T07:11:41.870Z,19.80
2022-09-12T07:14:13.012Z,20.00
2022-09-12T07:16:40.844Z,20.10
2022-09-12T07:19:08.520Z,20.30
2022-09-12T07:21:40.603Z,20.40
2022-09-12T07:24:10.043Z,20.50
2022-09-12T07:26:38.232Z,20.60
2022-09-12T07:29:36.700Z,20.70
2022-09-12T07:31:54.232Z,20.70
2022-09-12T07:34:21.157Z,20.80
2022-09-12T07:36:48.204Z,20.90
2022-09-12T07:39:15.277Z,21.00
2022-09-12T07:41:42.329Z,21.20
2022-09-12T07:44:09.593Z,21.40
2022-09-12T07:46:36.815Z,21.60
2022-09-12T07:49:04.347Z,21.90
2022-09-12T07:51:31.956Z,22.20
2022-09-12T07:53:59.588Z,22.50
2022-09-12T07:56:31.250Z,22.80
2022-09-12T07:58:59.907Z,23.10
2022-09-12T08:01:27.748Z,23.30
2022-09-12T08:03:57.656Z,23.70
2022-09-12T08:06:27.064Z,24.10
2022-09-12T08:08:58.631Z,24.60
2022-09-12T08:11:30.465Z,25.20
2022-09-12T08:13:58.622Z,25.60
2022-09-12T08:16:29.710Z,25.90
2022-09-12T08:18:57.242Z,26.10
2022-09-12T08:21:32.769Z,26.20
2022-09-12T08:24:02.450Z,26.10
2022-09-12T08:26:30.880Z,26.10
2022-09-12T08:28:57.916Z,25.90
2022-09-12T08:31:26.887Z,25.90
2022-09-12T08:33:58.984Z,25.90
2022-09-12T08:36:28.144Z,25.90
2022-09-12T08:39:02.026Z,26.20
2022-09-12T08:41:55.805Z,26.40
2022-09-12T08:44:38.440Z,26.90
2022-09-12T08:47:14.652Z,27.30
2022-09-12T08:50:05.685Z,27.80
2022-09-12T08:52:51.987Z,28.20
2022-09-12T08:55:58.827Z,28.40
2022-09-12T08:58:28.596Z,28.50
2022-09-12T09:01:30.356Z,28.50
2022-09-12T09:04:20.728Z,28.50
2022-09-12T09:07:17.838Z,28.30
2022-09-12T09:10:42.322Z,28.20
2022-09-12T09:13:41.458Z,28.10
2022-09-12T09:16:24.562Z,27.90
2022-09-12T09:18:54.575Z,27.70
2022-09-12T09:21:45.258Z,27.50
2022-09-12T09:24:17.265Z,27.50
2022-09-12T09:27:23.592Z,27.40
2022-09-12T09:29:56.047Z,27.30
2022-09-12T09:32:28.568Z,27.10
2022-09-12T09:34:55.873Z,27.00
2022-09-12T09:38:17.112Z,26.90
2022-09-12T09:41:02.122Z,26.90
2022-09-12T09:43:29.828Z,27.00
2022-09-12T09:45:58.516Z,27.00
2022-09-12T09:48:44.858Z,27.10
2022-09-12T09:51:14.211Z,27.10
2022-09-12T09:53:53.152Z,27.10
2022-09-12T09:56:28.950Z,26.90
2022-09-12T09:58:56.811Z,26.80
2022-09-12T10:01:25.539Z,26.60
2022-09-12T10:03:54.688Z,26.50
2022-09-12T10:06:26.971Z,26.30
2022-09-12T10:09:06.815Z,26.10
2022-09-12T10:11:34.049Z,25.90
2022-09-12T10:14:01.868Z,25.80
2022-09-12T10:16:49.838Z,25.60
2022-09-12T10:19:38.174Z,25.50
2022-09-12T10:22:06.937Z,25.30
2022-09-12T10:24:40.684Z,25.20
2022-09-12T10:27:07.658Z,25.10
2022-09-12T10:29:46.095Z,24.90
2022-09-12T10:32:30.489Z,24.80
2022-09-12T10:35:02.080Z,24.70
2022-09-12T10:37:35.200Z,24.60
2022-09-12T10:40:04.543Z,24.60
2022-09-12T10:42:53.881Z,24.50
2022-09-12T10:45:42.006Z,24.40
2022-09-12T10:48:31.678Z,24.40
2022-09-12T10:51:00.387Z,24.40
2022-09-12T10:53:34.531Z,24.30
2022-09-12T10:56:24.670Z,24.30
2022-09-12T10:59:16.760Z,24.30
2022-09-12T11:02:10.462Z,24.30
2022-09-12T11:04:42.001Z,24.40
2022-09-12T11:07:43.969Z,24.40
2022-09-12T11:10:37.350Z,24.40
2022-09-12T11:13:24.185Z,24.40
2022-09-12T11:16:12.132Z,24.50
2022-09-12T11:18:45.185Z,24.50
2022-09-12T11:21:50.250Z,24.50
2022-09-12T11:24:31.646Z,24.60
2022-09-12T11:27:13.750Z,24.60
2022-09-12T11:29:59.351Z,24.60
2022-09-12T11:32:54.906Z,24.60
2022-09-12T11:35:41.208Z,24.70
2022-09-12T11:38:30.193Z,24.70
2022-09-12T11:41:23.691Z,24.80
2022-09-12T11:44:00.146Z,24.80
2022-09-12T11:46:37.548Z,24.80
2022-09-12T11:49:12.467Z,24.80
2022-09-12T11:52:07.558Z,24.90
2022-09-12T11:55:03.853Z,24.90
2022-09-12T11:57:50.350Z,25.00
2022-09-12T12:00:27.427Z,25.00
2022-09-12T12:02:55.948Z,25.10
2022-09-12T12:05:32.149Z,25.20
2022-09-12T12:08:04.620Z,25.20
2022-09-12T12:10:38.635Z,25.30
2022-09-12T12:13:40.008Z,25.30
2022-09-12T12:16:14.390Z,25.30
2022-09-12T12:18:43.764Z,25.30
2022-09-12T12:21:21.952Z,25.30
2022-09-12T12:24:07.747Z,25.40
2022-09-12T12:26:43.662Z,25.40
2022-09-12T12:29:41.551Z,25.40
2022-09-12T12:32:10.552Z,25.50
2022-09-12T12:34:46.058Z,25.50
2022-09-12T12:37:19.482Z,25.60
2022-09-12T12:39:50.292Z,25.60
2022-09-12T12:42:36.887Z,25.60
2022-09-12T12:45:07.716Z,25.70
2022-09-12T12:47:37.868Z,25.70
2022-09-12T12:50:12.407Z,25.80
2022-09-12T12:53:03.180Z,25.80
2022-09-12T12:55:42.555Z,25.80
2022-09-12T12:58:32.035Z,25.80
2022-09-12T13:01:22.996Z,25.80
2022-09-12T13:04:10.874Z,25.80
2022-09-12T13:06:45.590Z,25.80
2022-09-12T13:09:34.732Z,25.80
2022-09-12T13:12:08.174Z,25.70
2022-09-12T13:14:53.812Z,25.60
2022-09-12T13:17:21.972Z,25.60
2022-09-12T13:20:00.788Z,25.50
2022-09-12T13:22:55.399Z,25.50
2022-09-12T13:25:22.569Z,25.40
2022-09-12T13:28:07.796Z,25.40
2022-09-12T13:30:38.008Z,25.40
2022-09-12T13:33:42.347Z,25.30
2022-09-12T13:36:11.157Z,25.30
2022-09-12T13:39:07.728Z,25.30
2022-09-12T13:41:42.804Z,25.30
2022-09-12T13:44:13.598Z,25.20
2022-09-12T13:46:41.422Z,25.20
2022-09-12T13:49:36.009Z,25.20
2022-09-12T13:52:22.158Z,25.20
2022-09-12T13:54:53.821Z,25.20
2022-09-12T13:57:31.494Z,25.20
2022-09-12T14:00:00.238Z,25.20
2022-09-12T14:02:29.191Z,25.20
2022-09-12T14:05:11.610Z,25.20
2022-09-12T14:07:52.539Z,25.10
2022-09-12T14:10:33.223Z,25.10
2022-09-12T14:13:10.999Z,25.10
2022-09-12T14:15:39.307Z,25.00
2022-09-12T14:18:08.412Z,25.00
2022-09-12T14:20:39.605Z,25.00
2022-09-12T14:23:34.442Z,25.00
2022-09-12T14:26:05.216Z,24.90
2022-09-12T14:28:34.507Z,24.90
2022-09-12T14:31:23.875Z,24.80
2022-09-12T14:33:55.272Z,24.90
2022-09-12T14:36:36.905Z,24.80
2022-09-12T14:39:35.703Z,24.80
2022-09-12T14:42:07.709Z,24.80
2022-09-12T14:44:36.400Z,24.80
2022-09-12T14:47:23.395Z,24.80
2022-09-12T14:49:54.077Z,24.80
2022-09-12T14:52:33.534Z,24.80
2022-09-12T14:55:20.487Z,24.70
2022-09-12T14:57:51.755Z,24.70
2022-09-12T15:00:22.615Z,24.70
2022-09-12T15:02:52.216Z,24.70
2022-09-12T15:05:25.072Z,24.70
2022-09-12T15:07:57.045Z,24.60
2022-09-12T15:10:37.781Z,24.70
2022-09-12T15:13:06.069Z,24.60
2022-09-12T15:15:39.694Z,24.60
2022-09-12T15:18:07.198Z,24.60
2022-09-12T15:20:37.582Z,24.60
2022-09-12T15:23:06.802Z,24.60
2022-09-12T15:25:33.901Z,24.50
2022-09-12T15:28:01.946Z,24.50
2022-09-12T15:30:30.200Z,24.50
2022-09-12T15:33:00.060Z,24.50
2022-09-12T15:35:33.533Z,24.50
2022-09-12T15:38:01.109Z,24.50
2022-09-12T15:40:28.111Z,24.50
2022-09-12T15:42:55.199Z,24.40
2022-09-12T15:45:27.250Z,24.40
2022-09-12T15:47:55.275Z,24.40
2022-09-12T15:50:22.846Z,24.40
2022-09-12T15:52:50.159Z,24.40
2022-09-12T15:55:23.515Z,24.40
2022-09-12T15:57:51.118Z,24.30
2022-09-12T16:00:19.276Z,24.30
2022-09-12T16:02:51.422Z,24.30
2022-09-12T16:05:25.431Z,24.30
2022-09-12T16:07:54.400Z,24.20
2022-09-12T16:10:24.437Z,24.20
2022-09-12T16:12:52.108Z,24.20
2022-09-12T16:15:24.133Z,24.10
2022-09-12T16:17:51.620Z,24.10
2022-09-12T16:20:19.445Z,24.00
2022-09-12T16:22:47.134Z,24.00
2022-09-12T16:25:14.448Z,24.00
2022-09-12T16:27:41.796Z,23.90
2022-09-12T16:30:09.795Z,23.80
2022-09-12T16:32:37.261Z,23.80
2022-09-12T16:35:04.886Z,23.80
2022-09-12T16:37:32.481Z,23.70
2022-09-12T16:39:59.690Z,23.70
2022-09-12T16:42:27.703Z,23.60
2022-09-12T16:44:54.906Z,23.60
2022-09-12T16:47:23.540Z,23.60
2022-09-12T16:49:52.041Z,23.40
2022-09-12T16:52:19.512Z,23.40
2022-09-12T16:54:46.785Z,23.40
2022-09-12T16:57:14.075Z,23.30
2022-09-12T16:59:41.045Z,23.30
2022-09-12T17:02:12.564Z,23.20
2022-09-12T17:04:40.333Z,23.20
2022-09-12T17:07:07.754Z,23.10
2022-09-12T17:09:35.424Z,23.10
2022-09-12T17:12:02.683Z,23.10
2022-09-12T17:14:29.869Z,23.10
2022-09-12T17:16:56.816Z,23.00
2022-09-12T17:19:26.986Z,22.90
2022-09-12T17:21:54.556Z,22.90
2022-09-12T17:24:21.671Z,22.80
2022-09-12T17:26:49.309Z,22.80
2022-09-12T17:29:16.877Z,22.70
2022-09-12T17:31:45.405Z,22.70
2022-09-12T17:34:17.643Z,22.70
2022-09-12T17:36:45.627Z,22.60
2022-09-12T17:39:13.837Z,22.60
2022-09-12T17:42:05.921Z,22.50
2022-09-12T17:44:35.925Z,22.40
2022-09-12T17:47:04.923Z,22.40
2022-09-12T17:49:31.835Z,22.30
2022-09-12T17:51:58.819Z,22.30
2022-09-12T17:54:25.966Z,22.30
2022-09-12T17:56:55.585Z,22.20
2022-09-12T17:59:24.921Z,22.20
2022-09-12T18:02:11.280Z,22.20
2022-09-12T18:04:39.302Z,22.10
2022-09-12T18:07:06.658Z,22.10
2022-09-12T18:09:34.253Z,22.00
2022-09-12T18:12:01.966Z,22.00
2022-09-12T18:14:29.905Z,21.90
2022-09-12T18:16:57.354Z,21.90
2022-09-12T18:19:24.768Z,21.90
2022-09-12T18:21:51.883Z,21.80
2022-09-12T18:24:20.005Z,21.80
2022-09-12T18:26:47.439Z,21.70
2022-09-12T18:29:20.458Z,21.70
2022-09-12T18:31:47.938Z,21.70
2022-09-12T18:34:16.210Z,21.70
2022-09-12T18:36:45.593Z,21.60
2022-09-12T18:39:12.805Z,21.60
2022-09-12T18:41:40.310Z,21.50
2022-09-12T18:44:08.166Z,21.50
2022-09-12T18:46:36.471Z,21.50
2022-09-12T18:49:05.288Z,21.40
2022-09-12T18:51:35.942Z,21.40
2022-09-12T18:54:06.800Z,21.40
2022-09-12T18:56:38.758Z,21.30
2022-09-12T18:59:07.297Z,21.30
2022-09-12T19:01:38.530Z,21.20
2022-09-12T19:04:08.091Z,21.20
2022-09-12T19:06:40.955Z,21.10
2022-09-12T19:09:09.269Z,21.10
2022-09-12T19:11:38.994Z,21.10
2022-09-12T19:14:07.798Z,21.00
2022-09-12T19:16:35.441Z,21.00
2022-09-12T19:19:04.157Z,21.00
2022-09-12T19:21:32.297Z,20.90
2022-09-12T19:24:03.497Z,20.90
2022-09-12T19:26:31.820Z,20.90
2022-09-12T19:29:02.648Z,20.80
2022-09-12T19:31:30.358Z,20.80
2022-09-12T19:34:02.255Z,20.70
2022-09-12T19:36:46.799Z,20.70
2022-09-12T19:39:19.918Z,20.60
2022-09-12T19:41:47.970Z,20.60
2022-09-12T19:44:15.023Z,20.60
2022-09-12T19:46:42.363Z,20.60
2022-09-12T19:49:11.655Z,20.50
2022-09-12T19:51:39.015Z,20.40
2022-09-12T19:54:06.243Z,20.40
2022-09-12T19:56:33.473Z,20.40
2022-09-12T19:59:01.547Z,20.30
2022-09-12T20:01:28.977Z,20.30
2022-09-12T20:03:57.070Z,20.30
2022-09-12T20:06:24.447Z,20.20
2022-09-12T20:08:51.517Z,20.20
2022-09-12T20:11:21.480Z,20.10
2022-09-12T20:13:48.961Z,20.10
2022-09-12T20:16:21.677Z,20.00
2022-09-12T20:18:54.787Z,20.00
2022-09-12T20:21:25.445Z,19.90
2022-09-12T20:23:52.722Z,19.90
2022-09-12T20:26:20.444Z,19.90
2022-09-12T20:28:48.590Z,19.80
2022-09-12T20:31:16.946Z,19.80
2022-09-12T20:33:47.563Z,19.70
2022-09-12T20:36:19.339Z,19.70
2022-09-12T20:38:56.934Z,19.60
2022-09-12T20:41:25.615Z,19.60
2022-09-12T20:43:54.504Z,19.60
2022-09-12T20:46:23.113Z,19.60
2022-09-12T20:48:52.292Z,19.60
2022-09-12T20:51:20.909Z,19.60
2022-09-12T20:53:56.729Z,19.60
2022-09-12T20:56:24.699Z,19.50
2022-09-12T20:58:51.649Z,19.50
2022-09-12T21:01:19.068Z,19.40
2022-09-12T21:03:46.621Z,19.50
2022-09-12T21:06:17.078Z,19.40
2022-09-12T21:08:44.768Z,19.40
2022-09-12T21:11:12.548Z,19.30
2022-09-12T21:13:39.912Z,19.30
2022-09-12T21:16:19.133Z,19.30
2022-09-12T21:18:46.936Z,19.30
2022-09-12T21:21:15.293Z,19.30
2022-09-12T21:23:42.600Z,19.20
2022-09-12T21:26:10.176Z,19.20
2022-09-12T21:28:37.306Z,19.20
2022-09-12T21:31:04.797Z,19.10
2022-09-12T21:33:32.030Z,19.10
2022-09-12T21:36:03.751Z,19.10
2022-09-12T21:38:31.045Z,19.10
2022-09-12T21:41:09.456Z,19.00
2022-09-12T21:43:37.168Z,19.00
2022-09-12T21:46:05.567Z,19.00
2022-09-12T21:48:33.231Z,18.90
2022-09-12T21:51:00.626Z,18.90
2022-09-12T21:53:28.315Z,18.80
2022-09-12T21:55:55.700Z,18.80
2022-09-12T21:58:23.058Z,18.80
2022-09-12T22:00:50.438Z,18.80
2022-09-12T22:03:19.249Z,18.70
2022-09-12T22:05:51.830Z,18.70
2022-09-12T22:08:18.938Z,18.70
2022-09-12T22:10:45.962Z,18.70
2022-09-12T22:13:13.497Z,18.70
2022-09-12T22:15:44.565Z,18.70
2022-09-12T22:18:11.807Z,18.60
2022-09-12T22:20:38.879Z,18.60
2022-09-12T22:23:25.264Z,18.60
2022-09-12T22:25:56.189Z,18.50
2022-09-12T22:28:25.252Z,18.50
2022-09-12T22:30:53.342Z,18.50
2022-09-12T22:33:21.451Z,18.40
2022-09-12T22:35:48.492Z,18.40
2022-09-12T22:38:15.493Z,18.40
2022-09-12T22:40:42.430Z,18.30
2022-09-12T22:43:10.342Z,18.30
2022-09-12T22:45:41.963Z,18.30
2022-09-12T22:48:09.439Z,18.30
2022-09-12T22:50:36.776Z,18.30
2022-09-12T22:53:03.777Z,18.20
2022-09-12T22:55:30.891Z,18.20
2022-09-12T22:57:57.942Z,18.20
2022-09-12T23:00:27.837Z,18.20
2022-09-12T23:02:55.383Z,18.20
2022-09-12T23:05:22.618Z,18.10
2022-09-12T23:07:51.613Z,18.10
2022-09-12T23:10:18.906Z,18.10
2022-09-12T23:12:45.911Z,18.10
2022-09-12T23:15:13.089Z,18.10
2022-09-12T23:17:40.321Z,18.10
2022-09-12T23:20:07.780Z,18.00
2022-09-12T23:22:37.250Z,18.10
2022-09-12T23:25:04.632Z,18.00
2022-09-12T23:27:31.643Z,18.00
2022-09-12T23:29:58.629Z,17.90
2022-09-12T23:32:26.388Z,17.90
2022-09-12T23:34:53.479Z,17.90
2022-09-12T23:37:22.101Z,17.90
2022-09-12T23:39:49.800Z,17.90
2022-09-12T23:42:17.536Z,17.80
2022-09-12T23:44:44.497Z,17.80
2022-09-12T23:47:11.893Z,17.80
2022-09-12T23:49:39.066Z,17.80
2022-09-12T23:52:06.122Z,17.80
2022-09-12T23:54:33.386Z,17.80
2022-09-12T23:57:00.613Z,17.70
2022-09-12T23:59:27.644Z,17.70
